Flight Track Log - Related Links

Times and Time Zones

All times are in EDT time to prevent confusion due to time zone crossing. See the SKW5631 flight status page for this flight to view local times or setup timezone preferences in your user account.

Time Position Orientation Groundspeed Altitude Reporting Facility
EDT Latitude Longitude Course Direction KTS MPH feet Rate Location/Type
Mon 06:45:00 PM 37.6500 -122.3667 90° East 151 174 1,700  Level Northern Cal TRACON
Mon 06:46:00 PM 37.6667 -122.3167 67° East 182 209 2,900 1,400 Climbing Northern Cal TRACON
Mon 06:47:00 PM 37.7000 -122.2667 50° Northeast 184 212 4,500 1,700 Climbing Northern Cal TRACON
Mon 06:48:00 PM 37.7333 -122.2000 58° Northeast 244 281 6,300 1,600 Climbing Northern Cal TRACON
Mon 06:49:00 PM 37.7500 -122.1333 72° East 197 227 7,700 1,289 Climbing Northern Cal TRACON
Mon 06:50:00 PM 37.6167 -122.3701 90° East  Level FlightAware Approximate
Mon 06:50:15 PM 37.7550 -122.0575 85° East 204 235 9,200  Level Oakland Center
Mon 06:51:16 PM 37.7686 -121.9878 76° East 205 236 10,500 1,377 Climbing Oakland Center
Mon 06:52:17 PM 37.7839 -121.9003 78° East 212 244 12,000 1,328 Climbing Oakland Center
Mon 06:53:18 PM 37.7553 -121.8286 117° Southeast 229 264 13,200 1,122 Climbing Oakland Center
Mon 06:54:20 PM 37.7258 -121.7572 118° Southeast 229 264 14,300 1,073 Climbing Oakland Center
Mon 06:55:21 PM 37.6942 -121.6842 119° Southeast 236 272 15,400 1,131 Climbing Oakland Center
Mon 06:56:22 PM 37.6644 -121.6144 118° Southeast 229 264 16,600 984 Climbing Oakland Center
Mon 06:57:23 PM 37.6350 -121.5411 117° Southeast 232 267 17,400 885 Climbing Oakland Center
Mon 06:58:24 PM 37.6042 -121.4689 118° Southeast 235 270 18,400 1,024 Climbing Oakland Center
Mon 06:59:26 PM 37.5733 -121.3958 118° Southeast 236 272 19,500 927 Climbing Oakland Center
Mon 07:00:27 PM 37.5383 -121.3261 122° Southeast 236 272 20,300 787 Climbing Oakland Center
Mon 07:01:28 PM 37.4864 -121.2717 140° Southeast 240 276 21,100 787 Climbing Oakland Center
Mon 07:02:29 PM 37.4353 -121.2139 138° Southeast 244 281 21,900 637 Climbing Oakland Center
Mon 07:04:27 PM 37.3272 -121.1022 141° Southeast 247 284 23,000 -4,711 Climbing Los Angeles Center
Mon 07:04:44 PM 37.5525 -121.5172 304° West 382 440 11,300  Descending Oakland Center
Mon 07:07:33 PM 37.1547 -120.9089 129° Southeast 280 322 23,000 3,039 Climbing Los Angeles Center
Mon 07:08:35 PM 37.0981 -120.8436 137° Southeast 278 320 23,000  Level Los Angeles Center
Mon 07:09:37 PM 37.0289 -120.7678 139° Southeast 277 319 23,000  Level Los Angeles Center
Mon 07:10:39 PM 36.9700 -120.6997 137° Southeast 273 314 23,000  Level Oakland Center
Mon 07:11:40 PM 36.9128 -120.6358 138° Southeast 275 316 23,000  Level Oakland Center
Mon 07:12:41 PM 36.8542 -120.5725 139° Southeast 275 316 23,000  Level Oakland Center
Mon 07:13:43 PM 36.7981 -120.5075 137° Southeast 277 319 23,000  Level Oakland Center
Mon 07:14:44 PM 36.7417 -120.4442 138° Southeast 271 312 23,000  Level Oakland Center
Mon 07:15:45 PM 36.6833 -120.3794 138° Southeast 278 320 23,000  Level Oakland Center
Mon 07:16:46 PM 36.6236 -120.3169 140° Southeast 277 319 23,000  Level Oakland Center
Mon 07:17:48 PM 36.5672 -120.2522 137° Southeast 274 315 23,000  Level Oakland Center
Mon 07:18:49 PM 36.4961 -120.1769 140° Southeast 277 319 23,000  Level Oakland Center
Mon 07:19:50 PM 36.4394 -120.1131 138° Southeast 276 318 23,000  Level Oakland Center
Mon 07:20:52 PM 36.3808 -120.0494 139° Southeast 278 320 23,000 -439 Level Oakland Center
Mon 07:21:53 PM 36.3206 -119.9842 139° Southeast 288 331 22,100 -1,131 Descending Oakland Center
Mon 07:22:54 PM 36.2531 -119.9119 139° Southeast 316 364 20,700 -1,279 Descending Oakland Center
Mon 07:23:55 PM 36.1842 -119.8381 139° Southeast 325 374 19,500 -1,122 Descending Oakland Center
Mon 07:24:57 PM 36.1167 -119.7647 139° Southeast 322 371 18,400 -1,317 Descending Oakland Center
Mon 07:25:58 PM 36.0492 -119.6922 139° Southeast 320 368 16,800 -1,672 Descending Oakland Center
Mon 07:26:59 PM 35.9803 -119.6217 140° Southeast 322 371 15,000 -1,659 Descending Oakland Center
Mon 07:28:01 PM 35.9117 -119.5486 139° Southeast 322 371 13,400 -1,756 Descending Oakland Center
Mon 07:29:02 PM 35.8289 -119.4606 139° Southeast 325 374 11,400 -1,770 Descending Oakland Center
Mon 07:30:03 PM 35.7628 -119.3872 138° Southeast 322 371 9,800 -1,475 Descending Oakland Center
Mon 07:31:04 PM 35.7053 -119.3094 132° Southeast 314 361 8,400 -1,463 Descending Oakland Center
Mon 07:32:06 PM 35.6483 -119.2344 133° Southeast 307 353 6,800 -1,512 Descending Oakland Center
Mon 07:33:07 PM 35.5911 -119.1628 134° Southeast 301 346 5,300 -1,348 Descending Oakland Center
Mon 07:33:35 PM 35.5683 -119.1350 135° Southeast 300 345 4,800 -1,333 Descending Los Angeles Center
Mon 07:34:37 PM 35.5164 -119.0717 135° Southeast 286 329 3,300 -1,452 Descending Los Angeles Center
Mon 07:37:00 PM 35.4333 -119.0500 151° Southeast  Level FlightAware Approximate
Mon 07:44:00 PM 35.4339 -119.0577 151° Southeast  Level Estimated
Mon 07:45:00 PM 35.4333 -119.0500 151° Southeast  Level FlightAware Approximate
Mon 07:46:00 PM 35.4339 -119.0577 151° Southeast  Level Estimated

Login

Don't have an account? Register now (free) for customized features, flight alerts, and more!